• Join FlightAware (Why Join?)
  • Login
  • US Flag 
11:39AM EDT


 

Airport Tracker/Info


-or-


 

Live Flight TrackerFlight Track Log ✈ DAL6055 ✈ 11-Apr-2013 ✈ KSDF - KDTW

Flight Track Log - Related Links

Times and Time Zones

All times are in EDT time to prevent confusion due to time zone crossing. See the DAL6055 flight status page for this flight to view local times or setup timezone preferences in your user account.

Time Position Orientation Groundspeed Altitude Reporting Facility
EDT Latitude Longitude Course Direction KTS MPH feet Rate Location/Type
12:59PM 38.1500 -85.7167 178° South 158 182 1,400  Level Louisville TRACON
12:59PM 38.1436 -85.7164 178° South 160 184 1,900 1,680 Climbing FAA TRACON SMA TRACON (SMA)
12:59PM 38.1289 -85.7114 165° South 172 198 2,400 1,800 Climbing FAA TRACON SMA TRACON (SMA)
01:00PM 38.1139 -85.7058 164° South 182 209 3,100 2,400 Climbing FAA TRACON SMA TRACON (SMA)
01:00PM 38.1028 -85.6833 122° Southeast 211 243 4,000 2,460 Climbing FAA TRACON SMA TRACON (SMA)
01:00PM 38.1086 -85.6608 72° East 227 261 4,800 2,100 Climbing FAA TRACON SMA TRACON (SMA)
01:01PM 38.1194 -85.6403 56° Northeast 229 264 5,400 2,100 Climbing FAA TRACON SMA TRACON (SMA)
01:01PM 38.1331 -85.6131 58° Northeast 236 272 6,200 2,400 Climbing FAA TRACON SMA TRACON (SMA)
01:01PM 38.1464 -85.5931 50° Northeast 240 276 7,000 2,700 Climbing FAA TRACON SMA TRACON (SMA)
01:02PM 38.1694 -85.5831 19° North 241 277 8,000 2,520 Climbing FAA TRACON SMA TRACON (SMA)
01:02PM 38.1872 -85.5908 341° North 230 265 8,700 1,800 Climbing FAA TRACON SMA TRACON (SMA)
01:02PM 38.2050 -85.6014 335° Northwest 227 261 9,200 1,620 Climbing FAA TRACON SMA TRACON (SMA)
01:03PM 38.2286 -85.6167 333° Northwest 245 282 9,800 1,620 Climbing FAA TRACON SMA TRACON (SMA)
01:03PM 38.2486 -85.6300 332° Northwest 260 299 10,300 1,320 Climbing FAA TRACON SMA TRACON (SMA)
01:03PM 38.2686 -85.6450 330° Northwest 269 310 10,700 1,320 Climbing FAA TRACON SMA TRACON (SMA)
01:04PM 38.2950 -85.6644 330° Northwest 283 326 11,200 1,500 Climbing FAA TRACON SMA TRACON (SMA)
01:04PM 38.3394 -85.6947 332° Northwest 297 342 12,200 1,380 Climbing FAA TRACON SMA TRACON (SMA)
01:05PM 38.3733 -85.6983 355° North 320 368 12,600 1,020 Climbing FAA TRACON SMA TRACON (SMA)
01:05PM 38.4008 -85.6861 19° North 339 390 12,900 1,020 Climbing FAA TRACON SMA TRACON (SMA)
01:05PM 38.4267 -85.6658 32° Northeast 352 405 13,300 1,320 Climbing FAA TRACON SMA TRACON (SMA)
01:06PM 38.4600 -85.6397 32° Northeast 363 418 13,800 1,500 Climbing FAA TRACON SMA TRACON (SMA)
01:06PM 38.4872 -85.6192 31° Northeast 369 425 14,300 1,320 Climbing FAA TRACON SMA TRACON (SMA)
01:06PM 38.5147 -85.5975 32° Northeast 376 433 14,700 1,500 Climbing FAA TRACON SMA TRACON (SMA)
01:07PM 38.5494 -85.5706 31° Northeast 380 437 15,300 1,620 Climbing FAA TRACON SMA TRACON (SMA)
01:07PM 38.5775 -85.5481 32° Northeast 384 442 15,800 1,260 Climbing FAA TRACON SMA TRACON (SMA)
01:07PM 38.6061 -85.5267 30° Northeast 387 445 16,200 1,500 Climbing FAA TRACON SMA TRACON (SMA)
01:08PM 38.6422 -85.4992 31° Northeast 391 450 16,800 1,680 Climbing FAA TRACON SMA TRACON (SMA)
01:08PM 38.6708 -85.4764 32° Northeast 395 455 17,300 1,500 Climbing FAA TRACON SMA TRACON (SMA)
01:08PM 38.6997 -85.4531 32° Northeast 397 457 17,800 1,920 Climbing FAA TRACON SMA TRACON (SMA)
01:09PM 38.7364 -85.4256 30° Northeast 398 458 18,600 1,620 Climbing FAA TRACON SMA TRACON (SMA)
01:09PM 38.7658 -85.4014 33° Northeast 403 464 18,900 600 Climbing FAA TRACON SMA TRACON (SMA)
01:09PM 38.7964 -85.3786 30° Northeast 411 473 19,000 120 Climbing FAA TRACON SMA TRACON (SMA)
01:10PM 38.8356 -85.3469 32° Northeast 429 494 19,000  Level FAA TRACON SMA TRACON (SMA)
01:10PM 38.8681 -85.3228 30° Northeast 439 505 19,000  Level FAA TRACON SMA TRACON (SMA)
01:10PM 38.9008 -85.2967 32° Northeast 447 514 19,000  Level FAA TRACON SMA TRACON (SMA)
01:11PM 38.9428 -85.2639 31° Northeast 455 524 19,000  Level FAA TRACON SMA TRACON (SMA)
01:11PM 38.9767 -85.2375 31° Northeast 460 529 19,000  Level FAA TRACON SMA TRACON (SMA)
01:11PM 39.0103 -85.2106 32° Northeast 464 534 19,000  Level FAA TRACON SMA TRACON (SMA)
01:12PM 39.0533 -85.1769 31° Northeast 468 539 19,000  Level FAA TRACON SMA TRACON (SMA)
01:12PM 39.0794 -85.1558 32° Northeast 475 547 19,000  Level FAA TRACON SMA TRACON (SMA)
01:13PM 39.1725 -85.0769 33° Northeast 485 558 19,000  Level Indianapolis Center
01:14PM 39.2783 -84.9933 31° Northeast 481 554 19,000 -60 Level Indianapolis Center
01:15PM 39.4092 -84.8878 32° Northeast 470 541 18,900  Descending Indianapolis Center
01:16PM 39.5253 -84.7972 31° Northeast 479 551 19,000  Climbing Indianapolis Center
01:17PM 39.6364 -84.7069 32° Northeast 471 542 19,000  Level Indianapolis Center
01:18PM 39.7472 -84.6175 32° Northeast 465 535 19,000  Level Indianapolis Center
01:19PM 39.8567 -84.5272 32° Northeast 461 531 19,000  Level Indianapolis Center
01:20PM 39.9683 -84.4356 32° Northeast 464 534 19,000 -60 Level Indianapolis Center
01:21PM 40.0981 -84.3983 12° North 477 549 18,900  Descending Indianapolis Center
01:22PM 40.2250 -84.4019 359° North 454 522 19,000  Climbing Indianapolis Center
01:23PM 40.3483 -84.4047 359° North 440 506 19,000  Level Indianapolis Center
01:24PM 40.4711 -84.4083 359° North 437 503 19,000  Level Indianapolis Center
01:25PM 40.6150 -84.4125 359° North 437 503 19,000  Level Indianapolis Center
01:26PM 40.7300 -84.4147 359° North 418 481 19,000  Level Indianapolis Center
01:27PM 40.8450 -84.4186 359° North 409 471 19,000  Level Indianapolis Center
01:28PM 40.9583 -84.4200 359° North 404 465 19,000 -720 Level Indianapolis Center
01:29PM 41.0736 -84.4233 359° North 409 471 17,600 -1,380 Descending Indianapolis Center
01:30PM 41.1861 -84.4269 359° North 403 464 16,200 -1,260 Descending Indianapolis Center
01:31PM 41.2167 -84.4283 358° North 404 465 15,900 -1,380 Descending FAA TRACON SMA TRACON (SMA)
01:31PM 41.2611 -84.4303 358° North 401 461 15,300 -1,920 Descending FAA TRACON SMA TRACON (SMA)
01:31PM 41.3053 -84.4311 359° North 404 465 14,700 -1,320 Descending Cleveland Center
01:32PM 41.4069 -84.3792 21° North 391 450 13,600 -1,080 Descending Cleveland Center
01:33PM 41.5014 -84.3014 32° Northeast 386 444 12,600 -900 Descending Cleveland Center
01:34PM 41.5978 -84.2236 31° Northeast 392 451 11,900 -300 Descending Cleveland Center
01:35PM 41.6683 -84.1692 30° Northeast 404 465 12,100 60 Climbing Cleveland Center
01:35PM 41.6919 -84.1456 37° Northeast 392 451 12,000 -120 Descending Cleveland Center
01:36PM 41.7644 -84.0911 29° Northeast 401 461 12,000  Level Cleveland Center
01:36PM 41.7881 -84.0672 37° Northeast 392 451 12,000  Level Cleveland Center
01:37PM 41.8506 -84.0008 38° Northeast 393 452 12,000 -420 Level Cleveland Center
01:37PM 41.8661 -83.9683 57° Northeast 392 451 11,600 -1,200 Descending Cleveland Center
01:38PM 41.9061 -83.8894 56° Northeast 340 391 10,800 -1,140 Descending Cleveland Center
01:38PM 41.9069 -83.8589 88° East 352 405 10,500 -1,320 Descending Cleveland Center
01:39PM 41.9194 -83.7786 78° East 290 334 9,500 -1,440 Descending Cleveland Center
01:39PM 41.9119 -83.7503 110° East 292 336 9,100 -1,440 Descending Cleveland Center
01:40PM 41.8833 -83.6594 113° Southeast 270 311 7,700 -1,440 Descending Cleveland Center
01:41PM 41.9311 -83.5836 50° Northeast 245 282 6,300 -1,140 Descending Cleveland Center
01:44PM 42.0619 -83.4872 29° Northeast 212 244 4,000 -1,020 Descending FAA TRACON SMA TRACON (SMA)
01:44PM 42.0794 -83.4739 29° Northeast 201 231 3,600 -1,200 Descending FAA TRACON SMA TRACON (SMA)
01:44PM 42.0942 -83.4633 28° Northeast 194 223 3,200 -1,080 Descending FAA TRACON SMA TRACON (SMA)
01:45PM 42.1097 -83.4519 29° Northeast 161 185 2,900 -900 Descending FAA TRACON SMA TRACON (SMA)
01:45PM 42.1206 -83.4436 30° Northeast 135 155 2,600 -780 Descending FAA TRACON SMA TRACON (SMA)
01:45PM 42.1325 -83.4347 29° Northeast 143 165 2,400 -840 Descending FAA TRACON SMA TRACON (SMA)
01:46PM 42.1539 -83.4192 28° Northeast 129 148 1,800 -720 Descending FAA TRACON SMA TRACON (SMA)
01:46PM 42.1628 -83.4131 27° Northeast 126 145 1,700 -660 Descending FAA TRACON SMA TRACON (SMA)
01:47PM 42.1728 -83.4058 28° Northeast 138 159 1,400 -900 Descending FAA TRACON SMA TRACON (SMA)
01:47PM 42.1858 -83.3961 29° Northeast 140 161 1,100 -780 Descending FAA TRACON SMA TRACON (SMA)
01:47PM 42.1964 -83.3883 29° Northeast 135 155 900 -660 Descending FAA TRACON SMA TRACON (SMA)
01:48PM 42.2078 -83.3797 29° Northeast 131 151 700 -300 Descending FAA TRACON SMA TRACON (SMA)
01:48PM 42.2147 -83.3750 27° Northeast 77 89 700  Level FAA TRACON SMA TRACON (SMA)
01:48PM 42.2158 -83.3739 37° Northeast 64 74 700  Level FAA TRACON SMA TRACON (SMA)
01:49PM 42.2158 -83.3739 14° North 64 74 700  Level FAA TRACON SMA TRACON (SMA)
01:51PM 42.2124 -83.3534 90° East  Level Estimated